Current Conditions
Light Rain
Showers



Pressure
1016.92 (mb) - 30.03 (inHG)
Visibility

10.0 (km) - 6.2 (miles)
   Temperature
13  °C
55°F
13  °C
Dewpoint
100  %
 Humidity
   Wind Speed
8  km/h
4  kts
5  mph
2.2  m/s
   Wind Direction
 140°
South East
   Airport Data
LELN
Location Leon 15 km (9.32 mi)
Metar :LELN 241730Z 14004KT 110V190 9999 RA BKN004 BKN056 13/13 Q1017 RERA
Mon 24th June 19:30 pm
   Raw Metar Info
Raw METAR is the most common format in the world for the transmission of observational weather data. It is highly standardized through the International Civil Aviation Organization (ICAO), which allows it to be understood throughout most of the world.
   API Info
Data Provided by
https://www.checkwx.com/weather/LELN
   © Info
CSS/SVG/PHP scripts were developed by weather34.com for use in the weather34 template © 2015-2019

Guide Info provided by Metar-Wikipedia